sensor_id;sensor_type;location;lat;lon;timestamp;P1;durP1;ratioP1;P2;durP2;ratioP2
43146;SDS011;28752;48.266;7.402;2022-08-05T00:02:01;3.13;;;1.83;;
43146;SDS011;28752;48.266;7.402;2022-08-05T00:06:53;3.97;;;1.77;;
43146;SDS011;28752;48.266;7.402;2022-08-05T00:09:18;5.25;;;1.60;;
43146;SDS011;28752;48.266;7.402;2022-08-05T00:17:40;4.88;;;1.80;;
43146;SDS011;28752;48.266;7.402;2022-08-05T00:20:05;4.68;;;1.40;;
43146;SDS011;28752;48.266;7.402;2022-08-05T00:24:56;4.68;;;2.08;;
43146;SDS011;28752;48.266;7.402;2022-08-05T00:27:22;3.35;;;2.03;;
43146;SDS011;28752;48.266;7.402;2022-08-05T00:29:47;3.55;;;2.00;;
43146;SDS011;28752;48.266;7.402;2022-08-05T00:32:12;4.25;;;1.83;;
43146;SDS011;28752;48.266;7.402;2022-08-05T00:34:38;3.88;;;1.73;;
43146;SDS011;28752;48.266;7.402;2022-08-05T00:37:04;4.80;;;1.90;;
43146;SDS011;28752;48.266;7.402;2022-08-05T00:41:56;3.17;;;1.65;;
43146;SDS011;28752;48.266;7.402;2022-08-05T00:46:47;4.03;;;1.80;;
43146;SDS011;28752;48.266;7.402;2022-08-05T00:54:03;4.57;;;2.03;;
43146;SDS011;28752;48.266;7.402;2022-08-05T00:58:54;3.47;;;1.70;;
43146;SDS011;28752;48.266;7.402;2022-08-05T01:06:10;3.63;;;1.63;;
43146;SDS011;28752;48.266;7.402;2022-08-05T01:11:03;5.07;;;2.05;;
43146;SDS011;28752;48.266;7.402;2022-08-05T01:13:54;4.22;;;1.90;;
43146;SDS011;28752;48.266;7.402;2022-08-05T01:16:36;4.15;;;2.00;;
43146;SDS011;28752;48.266;7.402;2022-08-05T01:24:51;3.85;;;1.95;;
43146;SDS011;28752;48.266;7.402;2022-08-05T01:30:31;3.03;;;1.75;;
43146;SDS011;28752;48.266;7.402;2022-08-05T01:33:06;4.35;;;1.88;;
43146;SDS011;28752;48.266;7.402;2022-08-05T01:35:36;3.47;;;2.00;;
43146;SDS011;28752;48.266;7.402;2022-08-05T01:38:05;3.45;;;2.05;;
43146;SDS011;28752;48.266;7.402;2022-08-05T01:40:32;3.47;;;1.80;;
43146;SDS011;28752;48.266;7.402;2022-08-05T01:45:26;2.75;;;1.83;;
43146;SDS011;28752;48.266;7.402;2022-08-05T01:47:54;5.38;;;1.92;;
43146;SDS011;28752;48.266;7.402;2022-08-05T01:50:23;3.70;;;1.90;;
43146;SDS011;28752;48.266;7.402;2022-08-05T01:53:00;3.15;;;1.67;;
43146;SDS011;28752;48.266;7.402;2022-08-05T01:55:29;5.35;;;1.88;;
43146;SDS011;28752;48.266;7.402;2022-08-05T01:57:57;3.90;;;2.05;;
43146;SDS011;28752;48.266;7.402;2022-08-05T02:00:24;4.82;;;2.10;;
43146;SDS011;28752;48.266;7.402;2022-08-05T02:02:54;5.45;;;2.20;;
43146;SDS011;28752;48.266;7.402;2022-08-05T02:05:24;3.55;;;2.00;;
43146;SDS011;28752;48.266;7.402;2022-08-05T02:07:56;3.95;;;1.90;;
43146;SDS011;28752;48.266;7.402;2022-08-05T02:10:22;5.90;;;2.22;;
43146;SDS011;28752;48.266;7.402;2022-08-05T02:12:53;4.63;;;2.10;;
43146;SDS011;28752;48.266;7.402;2022-08-05T02:15:23;4.35;;;1.90;;
43146;SDS011;28752;48.266;7.402;2022-08-05T02:18:01;2.97;;;1.92;;
43146;SDS011;28752;48.266;7.402;2022-08-05T02:20:32;2.83;;;1.60;;
43146;SDS011;28752;48.266;7.402;2022-08-05T02:23:04;4.25;;;2.10;;
43146;SDS011;28752;48.266;7.402;2022-08-05T02:25:34;7.05;;;2.47;;
43146;SDS011;28752;48.266;7.402;2022-08-05T02:28:01;4.97;;;2.13;;
43146;SDS011;28752;48.266;7.402;2022-08-05T02:30:34;3.15;;;1.90;;
43146;SDS011;28752;48.266;7.402;2022-08-05T02:33:07;3.90;;;2.13;;
43146;SDS011;28752;48.266;7.402;2022-08-05T02:35:34;3.60;;;1.85;;
43146;SDS011;28752;48.266;7.402;2022-08-05T02:38:01;3.60;;;1.70;;
43146;SDS011;28752;48.266;7.402;2022-08-05T02:40:28;5.40;;;2.40;;
43146;SDS011;28752;48.266;7.402;2022-08-05T02:42:55;3.53;;;2.05;;
43146;SDS011;28752;48.266;7.402;2022-08-05T02:45:22;3.80;;;2.25;;
43146;SDS011;28752;48.266;7.402;2022-08-05T02:47:48;3.53;;;2.30;;
43146;SDS011;28752;48.266;7.402;2022-08-05T02:50:15;3.75;;;1.98;;
43146;SDS011;28752;48.266;7.402;2022-08-05T02:52:42;4.30;;;1.90;;
43146;SDS011;28752;48.266;7.402;2022-08-05T02:55:09;5.53;;;2.00;;
43146;SDS011;28752;48.266;7.402;2022-08-05T02:57:37;5.50;;;2.40;;
43146;SDS011;28752;48.266;7.402;2022-08-05T03:00:04;4.13;;;2.10;;
43146;SDS011;28752;48.266;7.402;2022-08-05T03:02:33;4.82;;;1.98;;
43146;SDS011;28752;48.266;7.402;2022-08-05T03:05:02;3.42;;;2.22;;
43146;SDS011;28752;48.266;7.402;2022-08-05T03:07:29;5.55;;;2.10;;
43146;SDS011;28752;48.266;7.402;2022-08-05T03:09:55;4.93;;;2.10;;
43146;SDS011;28752;48.266;7.402;2022-08-05T03:12:31;5.13;;;2.00;;
43146;SDS011;28752;48.266;7.402;2022-08-05T03:14:59;4.10;;;1.95;;
43146;SDS011;28752;48.266;7.402;2022-08-05T03:17:25;6.60;;;2.30;;
43146;SDS011;28752;48.266;7.402;2022-08-05T03:19:51;4.15;;;2.08;;
43146;SDS011;28752;48.266;7.402;2022-08-05T03:22:16;4.63;;;2.53;;
43146;SDS011;28752;48.266;7.402;2022-08-05T03:27:08;4.35;;;2.20;;
43146;SDS011;28752;48.266;7.402;2022-08-05T03:29:34;5.60;;;2.45;;
43146;SDS011;28752;48.266;7.402;2022-08-05T03:32:00;4.43;;;2.15;;
43146;SDS011;28752;48.266;7.402;2022-08-05T03:34:26;3.95;;;2.20;;
43146;SDS011;28752;48.266;7.402;2022-08-05T03:36:52;4.35;;;2.38;;
43146;SDS011;28752;48.266;7.402;2022-08-05T03:41:43;4.30;;;2.20;;
43146;SDS011;28752;48.266;7.402;2022-08-05T03:44:08;5.90;;;2.00;;
43146;SDS011;28752;48.266;7.402;2022-08-05T03:46:34;4.60;;;2.47;;
43146;SDS011;28752;48.266;7.402;2022-08-05T03:48:59;4.90;;;2.58;;
43146;SDS011;28752;48.266;7.402;2022-08-05T03:51:29;4.82;;;2.60;;
43146;SDS011;28752;48.266;7.402;2022-08-05T03:56:43;5.35;;;2.40;;
43146;SDS011;28752;48.266;7.402;2022-08-05T03:59:20;6.32;;;2.65;;
43146;SDS011;28752;48.266;7.402;2022-08-05T04:01:50;5.90;;;2.63;;
43146;SDS011;28752;48.266;7.402;2022-08-05T04:04:19;4.65;;;2.30;;
43146;SDS011;28752;48.266;7.402;2022-08-05T04:06:45;5.65;;;2.90;;
43146;SDS011;28752;48.266;7.402;2022-08-05T04:09:12;4.95;;;2.53;;
43146;SDS011;28752;48.266;7.402;2022-08-05T04:11:39;5.68;;;2.60;;
43146;SDS011;28752;48.266;7.402;2022-08-05T04:14:04;4.65;;;2.40;;
43146;SDS011;28752;48.266;7.402;2022-08-05T04:16:31;4.65;;;2.40;;
43146;SDS011;28752;48.266;7.402;2022-08-05T04:18:59;5.78;;;2.58;;
43146;SDS011;28752;48.266;7.402;2022-08-05T04:21:25;6.07;;;2.78;;
43146;SDS011;28752;48.266;7.402;2022-08-05T04:23:51;9.38;;;2.88;;
43146;SDS011;28752;48.266;7.402;2022-08-05T04:26:17;5.40;;;2.60;;
43146;SDS011;28752;48.266;7.402;2022-08-05T04:31:08;6.40;;;2.33;;
43146;SDS011;28752;48.266;7.402;2022-08-05T04:35:58;4.00;;;2.40;;
43146;SDS011;28752;48.266;7.402;2022-08-05T04:38:24;4.78;;;2.75;;
43146;SDS011;28752;48.266;7.402;2022-08-05T04:43:15;4.83;;;2.77;;
43146;SDS011;28752;48.266;7.402;2022-08-05T04:45:40;7.22;;;2.65;;
43146;SDS011;28752;48.266;7.402;2022-08-05T04:48:06;5.85;;;2.70;;
43146;SDS011;28752;48.266;7.402;2022-08-05T04:50:40;6.05;;;2.65;;
43146;SDS011;28752;48.266;7.402;2022-08-05T04:53:08;5.82;;;2.88;;
43146;SDS011;28752;48.266;7.402;2022-08-05T04:55:37;5.68;;;2.70;;
43146;SDS011;28752;48.266;7.402;2022-08-05T04:58:06;5.85;;;2.55;;
43146;SDS011;28752;48.266;7.402;2022-08-05T05:00:34;4.53;;;2.70;;
43146;SDS011;28752;48.266;7.402;2022-08-05T05:03:00;4.78;;;2.78;;
43146;SDS011;28752;48.266;7.402;2022-08-05T05:05:27;6.75;;;2.63;;
43146;SDS011;28752;48.266;7.402;2022-08-05T05:07:55;6.18;;;2.15;;
43146;SDS011;28752;48.266;7.402;2022-08-05T05:10:24;4.35;;;2.38;;
43146;SDS011;28752;48.266;7.402;2022-08-05T05:12:49;4.10;;;2.20;;
43146;SDS011;28752;48.266;7.402;2022-08-05T05:15:14;4.25;;;2.50;;
43146;SDS011;28752;48.266;7.402;2022-08-05T05:17:41;5.70;;;2.22;;
43146;SDS011;28752;48.266;7.402;2022-08-05T05:20:10;4.90;;;2.47;;
43146;SDS011;28752;48.266;7.402;2022-08-05T05:22:37;5.57;;;2.53;;
43146;SDS011;28752;48.266;7.402;2022-08-05T05:25:03;6.70;;;2.50;;
43146;SDS011;28752;48.266;7.402;2022-08-05T05:29:55;4.45;;;2.30;;
43146;SDS011;28752;48.266;7.402;2022-08-05T05:32:20;5.60;;;2.20;;
43146;SDS011;28752;48.266;7.402;2022-08-05T05:37:11;4.83;;;2.60;;
43146;SDS011;28752;48.266;7.402;2022-08-05T05:39:38;3.65;;;2.05;;
43146;SDS011;28752;48.266;7.402;2022-08-05T05:42:04;6.38;;;2.95;;
43146;SDS011;28752;48.266;7.402;2022-08-05T05:44:30;6.50;;;3.05;;
43146;SDS011;28752;48.266;7.402;2022-08-05T05:49:20;6.55;;;2.80;;
43146;SDS011;28752;48.266;7.402;2022-08-05T05:56:37;3.90;;;2.60;;
43146;SDS011;28752;48.266;7.402;2022-08-05T06:01:28;4.72;;;2.45;;
43146;SDS011;28752;48.266;7.402;2022-08-05T06:06:20;5.13;;;2.38;;
43146;SDS011;28752;48.266;7.402;2022-08-05T06:11:10;3.83;;;2.07;;
43146;SDS011;28752;48.266;7.402;2022-08-05T06:16:01;6.03;;;2.20;;
43146;SDS011;28752;48.266;7.402;2022-08-05T06:23:17;4.37;;;1.70;;
43146;SDS011;28752;48.266;7.402;2022-08-05T06:25:42;4.65;;;1.88;;
43146;SDS011;28752;48.266;7.402;2022-08-05T06:28:08;3.50;;;1.75;;
43146;SDS011;28752;48.266;7.402;2022-08-05T06:30:33;3.88;;;2.10;;
43146;SDS011;28752;48.266;7.402;2022-08-05T06:32:59;4.85;;;2.10;;
43146;SDS011;28752;48.266;7.402;2022-08-05T06:35:24;4.65;;;2.10;;
43146;SDS011;28752;48.266;7.402;2022-08-05T06:37:50;5.53;;;2.47;;
43146;SDS011;28752;48.266;7.402;2022-08-05T06:40:15;6.80;;;2.70;;
43146;SDS011;28752;48.266;7.402;2022-08-05T06:42:41;6.90;;;2.30;;
43146;SDS011;28752;48.266;7.402;2022-08-05T06:45:06;3.47;;;2.17;;
43146;SDS011;28752;48.266;7.402;2022-08-05T06:47:32;5.90;;;2.85;;
43146;SDS011;28752;48.266;7.402;2022-08-05T06:49:58;4.55;;;2.72;;
43146;SDS011;28752;48.266;7.402;2022-08-05T06:52:23;4.78;;;2.70;;
43146;SDS011;28752;48.266;7.402;2022-08-05T06:54:49;6.28;;;2.60;;
43146;SDS011;28752;48.266;7.402;2022-08-05T06:57:14;5.22;;;2.38;;
43146;SDS011;28752;48.266;7.402;2022-08-05T06:59:42;6.10;;;2.78;;
43146;SDS011;28752;48.266;7.402;2022-08-05T07:02:07;6.25;;;2.30;;
43146;SDS011;28752;48.266;7.402;2022-08-05T07:04:33;5.90;;;2.53;;
43146;SDS011;28752;48.266;7.402;2022-08-05T07:06:58;4.90;;;2.30;;
43146;SDS011;28752;48.266;7.402;2022-08-05T07:09:24;6.57;;;2.30;;
43146;SDS011;28752;48.266;7.402;2022-08-05T07:11:49;6.05;;;2.90;;
43146;SDS011;28752;48.266;7.402;2022-08-05T07:14:15;5.70;;;2.58;;
43146;SDS011;28752;48.266;7.402;2022-08-05T07:16:59;4.78;;;2.40;;
43146;SDS011;28752;48.266;7.402;2022-08-05T07:19:25;4.53;;;2.03;;
43146;SDS011;28752;48.266;7.402;2022-08-05T07:21:53;5.05;;;2.03;;
43146;SDS011;28752;48.266;7.402;2022-08-05T07:24:18;5.60;;;2.30;;
43146;SDS011;28752;48.266;7.402;2022-08-05T07:26:44;5.10;;;2.08;;
43146;SDS011;28752;48.266;7.402;2022-08-05T07:29:10;4.75;;;1.90;;
43146;SDS011;28752;48.266;7.402;2022-08-05T07:31:36;5.30;;;2.20;;
43146;SDS011;28752;48.266;7.402;2022-08-05T07:34:02;3.95;;;2.20;;
43146;SDS011;28752;48.266;7.402;2022-08-05T07:36:28;4.43;;;1.88;;
43146;SDS011;28752;48.266;7.402;2022-08-05T07:38:53;4.40;;;2.35;;
43146;SDS011;28752;48.266;7.402;2022-08-05T07:41:20;3.78;;;2.13;;
43146;SDS011;28752;48.266;7.402;2022-08-05T07:43:48;3.85;;;2.10;;
43146;SDS011;28752;48.266;7.402;2022-08-05T07:46:13;4.65;;;2.13;;
43146;SDS011;28752;48.266;7.402;2022-08-05T07:48:39;4.38;;;2.22;;
43146;SDS011;28752;48.266;7.402;2022-08-05T07:51:04;3.78;;;2.03;;
43146;SDS011;28752;48.266;7.402;2022-08-05T07:53:30;4.35;;;2.10;;
43146;SDS011;28752;48.266;7.402;2022-08-05T07:55:55;3.90;;;2.33;;
43146;SDS011;28752;48.266;7.402;2022-08-05T07:58:20;4.63;;;2.55;;
43146;SDS011;28752;48.266;7.402;2022-08-05T08:00:46;4.53;;;2.40;;
43146;SDS011;28752;48.266;7.402;2022-08-05T08:03:12;5.38;;;2.50;;
43146;SDS011;28752;48.266;7.402;2022-08-05T08:05:41;5.07;;;2.45;;
43146;SDS011;28752;48.266;7.402;2022-08-05T08:08:10;4.78;;;2.60;;
43146;SDS011;28752;48.266;7.402;2022-08-05T08:10:37;5.10;;;2.60;;
43146;SDS011;28752;48.266;7.402;2022-08-05T08:13:02;6.18;;;2.80;;
43146;SDS011;28752;48.266;7.402;2022-08-05T08:15:28;4.85;;;2.50;;
43146;SDS011;28752;48.266;7.402;2022-08-05T08:17:53;4.70;;;2.67;;
43146;SDS011;28752;48.266;7.402;2022-08-05T08:20:22;4.85;;;2.50;;
43146;SDS011;28752;48.266;7.402;2022-08-05T08:22:53;3.67;;;2.25;;
43146;SDS011;28752;48.266;7.402;2022-08-05T08:25:21;5.25;;;2.53;;
43146;SDS011;28752;48.266;7.402;2022-08-05T08:27:48;4.05;;;2.17;;
43146;SDS011;28752;48.266;7.402;2022-08-05T08:30:13;3.85;;;2.35;;
43146;SDS011;28752;48.266;7.402;2022-08-05T08:32:39;5.63;;;2.33;;
43146;SDS011;28752;48.266;7.402;2022-08-05T08:35:05;6.40;;;2.25;;
43146;SDS011;28752;48.266;7.402;2022-08-05T08:37:31;4.50;;;2.30;;
43146;SDS011;28752;48.266;7.402;2022-08-05T08:39:57;4.00;;;2.15;;
43146;SDS011;28752;48.266;7.402;2022-08-05T08:42:22;4.28;;;2.22;;
43146;SDS011;28752;48.266;7.402;2022-08-05T08:44:48;3.78;;;2.13;;
43146;SDS011;28752;48.266;7.402;2022-08-05T08:47:15;4.63;;;2.35;;
43146;SDS011;28752;48.266;7.402;2022-08-05T08:49:47;4.10;;;2.00;;
43146;SDS011;28752;48.266;7.402;2022-08-05T08:52:17;12.07;;;3.45;;
43146;SDS011;28752;48.266;7.402;2022-08-05T08:54:49;4.70;;;2.55;;
43146;SDS011;28752;48.266;7.402;2022-08-05T08:57:16;4.72;;;2.50;;
43146;SDS011;28752;48.266;7.402;2022-08-05T08:59:42;4.28;;;2.33;;
43146;SDS011;28752;48.266;7.402;2022-08-05T09:02:08;4.38;;;2.40;;
43146;SDS011;28752;48.266;7.402;2022-08-05T09:04:35;3.85;;;2.35;;
43146;SDS011;28752;48.266;7.402;2022-08-05T09:07:04;4.00;;;2.00;;
43146;SDS011;28752;48.266;7.402;2022-08-05T09:09:31;4.00;;;2.08;;
43146;SDS011;28752;48.266;7.402;2022-08-05T09:11:58;3.70;;;2.20;;
43146;SDS011;28752;48.266;7.402;2022-08-05T09:14:24;5.07;;;2.10;;
43146;SDS011;28752;48.266;7.402;2022-08-05T09:16:50;4.32;;;2.45;;
43146;SDS011;28752;48.266;7.402;2022-08-05T09:19:15;4.88;;;2.35;;
43146;SDS011;28752;48.266;7.402;2022-08-05T09:21:41;5.22;;;2.33;;
43146;SDS011;28752;48.266;7.402;2022-08-05T09:24:07;5.60;;;2.30;;
43146;SDS011;28752;48.266;7.402;2022-08-05T09:26:34;7.40;;;2.17;;
43146;SDS011;28752;48.266;7.402;2022-08-05T09:29:01;5.05;;;2.10;;
43146;SDS011;28752;48.266;7.402;2022-08-05T09:31:30;4.10;;;2.28;;
43146;SDS011;28752;48.266;7.402;2022-08-05T09:34:03;4.60;;;2.30;;
43146;SDS011;28752;48.266;7.402;2022-08-05T09:39:04;3.38;;;2.25;;
43146;SDS011;28752;48.266;7.402;2022-08-05T09:41:32;3.97;;;2.20;;
43146;SDS011;28752;48.266;7.402;2022-08-05T09:43:57;3.83;;;2.22;;
43146;SDS011;28752;48.266;7.402;2022-08-05T09:48:56;4.78;;;2.10;;
43146;SDS011;28752;48.266;7.402;2022-08-05T09:51:36;3.03;;;2.05;;
43146;SDS011;28752;48.266;7.402;2022-08-05T09:54:04;4.55;;;2.15;;
43146;SDS011;28752;48.266;7.402;2022-08-05T09:56:33;3.92;;;2.22;;
43146;SDS011;28752;48.266;7.402;2022-08-05T09:59:08;4.78;;;2.05;;
43146;SDS011;28752;48.266;7.402;2022-08-05T10:01:36;4.10;;;2.33;;
43146;SDS011;28752;48.266;7.402;2022-08-05T10:04:09;3.97;;;2.13;;
43146;SDS011;28752;48.266;7.402;2022-08-05T10:06:41;3.40;;;2.20;;
43146;SDS011;28752;48.266;7.402;2022-08-05T10:09:17;4.60;;;2.00;;
43146;SDS011;28752;48.266;7.402;2022-08-05T10:11:45;3.30;;;2.00;;
43146;SDS011;28752;48.266;7.402;2022-08-05T10:14:24;4.32;;;1.90;;
43146;SDS011;28752;48.266;7.402;2022-08-05T10:16:52;4.18;;;2.03;;
43146;SDS011;28752;48.266;7.402;2022-08-05T10:19:23;4.32;;;2.05;;
43146;SDS011;28752;48.266;7.402;2022-08-05T10:21:49;5.60;;;2.15;;
43146;SDS011;28752;48.266;7.402;2022-08-05T10:24:18;3.67;;;2.03;;
43146;SDS011;28752;48.266;7.402;2022-08-05T10:26:46;3.67;;;1.88;;
43146;SDS011;28752;48.266;7.402;2022-08-05T10:29:12;5.43;;;2.10;;
43146;SDS011;28752;48.266;7.402;2022-08-05T10:31:38;3.85;;;2.10;;
43146;SDS011;28752;48.266;7.402;2022-08-05T10:34:04;3.92;;;2.22;;
43146;SDS011;28752;48.266;7.402;2022-08-05T10:36:31;4.35;;;2.20;;
43146;SDS011;28752;48.266;7.402;2022-08-05T10:39:11;4.45;;;2.20;;
43146;SDS011;28752;48.266;7.402;2022-08-05T10:44:27;4.15;;;2.38;;
43146;SDS011;28752;48.266;7.402;2022-08-05T10:46:55;3.65;;;2.30;;
43146;SDS011;28752;48.266;7.402;2022-08-05T10:49:21;4.68;;;2.03;;
43146;SDS011;28752;48.266;7.402;2022-08-05T10:51:52;4.90;;;2.10;;
43146;SDS011;28752;48.266;7.402;2022-08-05T10:54:23;3.78;;;2.20;;
43146;SDS011;28752;48.266;7.402;2022-08-05T10:57:10;4.63;;;2.20;;
43146;SDS011;28752;48.266;7.402;2022-08-05T10:59:49;4.10;;;2.20;;
43146;SDS011;28752;48.266;7.402;2022-08-05T11:02:31;5.40;;;2.53;;
43146;SDS011;28752;48.266;7.402;2022-08-05T11:04:56;4.03;;;2.53;;
43146;SDS011;28752;48.266;7.402;2022-08-05T11:07:22;3.70;;;2.13;;
43146;SDS011;28752;48.266;7.402;2022-08-05T11:09:49;4.80;;;2.25;;
43146;SDS011;28752;48.266;7.402;2022-08-05T11:23:23;3.55;;;2.15;;
43146;SDS011;28752;48.266;7.402;2022-08-05T11:26:09;4.80;;;2.35;;
43146;SDS011;28752;48.266;7.402;2022-08-05T11:28:39;3.60;;;2.20;;
43146;SDS011;28752;48.266;7.402;2022-08-05T11:36:11;3.90;;;2.10;;
43146;SDS011;28752;48.266;7.402;2022-08-05T11:43:33;3.90;;;2.00;;
43146;SDS011;28752;48.266;7.402;2022-08-05T11:45:59;2.95;;;1.98;;
43146;SDS011;28752;48.266;7.402;2022-08-05T11:48:25;3.53;;;2.00;;
43146;SDS011;28752;48.266;7.402;2022-08-05T11:50:52;4.50;;;2.00;;
43146;SDS011;28752;48.266;7.402;2022-08-05T11:53:18;3.65;;;1.85;;
43146;SDS011;28752;48.266;7.402;2022-08-05T11:55:58;3.10;;;1.73;;
43146;SDS011;28752;48.266;7.402;2022-08-05T11:58:28;2.90;;;1.55;;
43146;SDS011;28752;48.266;7.402;2022-08-05T12:01:00;4.38;;;2.00;;
43146;SDS011;28752;48.266;7.402;2022-08-05T12:03:27;3.60;;;1.83;;
43146;SDS011;28752;48.266;7.402;2022-08-05T12:05:53;3.83;;;2.00;;
43146;SDS011;28752;48.266;7.402;2022-08-05T12:08:21;3.33;;;1.73;;
43146;SDS011;28752;48.266;7.402;2022-08-05T12:10:47;3.72;;;1.70;;
43146;SDS011;28752;48.266;7.402;2022-08-05T12:13:14;4.35;;;1.67;;
43146;SDS011;28752;48.266;7.402;2022-08-05T12:15:44;3.47;;;1.60;;
43146;SDS011;28752;48.266;7.402;2022-08-05T12:18:09;3.50;;;1.60;;
43146;SDS011;28752;48.266;7.402;2022-08-05T12:20:35;3.42;;;1.75;;
43146;SDS011;28752;48.266;7.402;2022-08-05T12:23:09;3.65;;;1.92;;
43146;SDS011;28752;48.266;7.402;2022-08-05T12:25:53;3.53;;;1.95;;
43146;SDS011;28752;48.266;7.402;2022-08-05T12:28:29;4.93;;;2.20;;
43146;SDS011;28752;48.266;7.402;2022-08-05T12:30:55;2.85;;;1.75;;
43146;SDS011;28752;48.266;7.402;2022-08-05T12:33:21;2.97;;;1.90;;
43146;SDS011;28752;48.266;7.402;2022-08-05T12:35:47;3.92;;;2.00;;
43146;SDS011;28752;48.266;7.402;2022-08-05T12:38:13;3.03;;;1.90;;
43146;SDS011;28752;48.266;7.402;2022-08-05T12:40:38;6.82;;;2.20;;
43146;SDS011;28752;48.266;7.402;2022-08-05T12:43:07;3.35;;;1.90;;
43146;SDS011;28752;48.266;7.402;2022-08-05T12:45:32;3.58;;;1.90;;
43146;SDS011;28752;48.266;7.402;2022-08-05T12:47:58;3.80;;;2.10;;
43146;SDS011;28752;48.266;7.402;2022-08-05T12:50:23;4.60;;;2.15;;
43146;SDS011;28752;48.266;7.402;2022-08-05T12:52:55;2.78;;;1.70;;
43146;SDS011;28752;48.266;7.402;2022-08-05T12:55:24;3.20;;;2.13;;
43146;SDS011;28752;48.266;7.402;2022-08-05T12:57:51;4.43;;;2.10;;
43146;SDS011;28752;48.266;7.402;2022-08-05T13:00:19;4.95;;;2.15;;
43146;SDS011;28752;48.266;7.402;2022-08-05T13:02:45;3.78;;;2.10;;
43146;SDS011;28752;48.266;7.402;2022-08-05T13:05:11;3.55;;;1.90;;
43146;SDS011;28752;48.266;7.402;2022-08-05T13:07:38;2.72;;;1.70;;
43146;SDS011;28752;48.266;7.402;2022-08-05T13:10:09;2.97;;;2.05;;
43146;SDS011;28752;48.266;7.402;2022-08-05T13:12:39;3.20;;;1.95;;
43146;SDS011;28752;48.266;7.402;2022-08-05T13:15:08;3.22;;;1.90;;
43146;SDS011;28752;48.266;7.402;2022-08-05T13:17:34;3.58;;;1.88;;
43146;SDS011;28752;48.266;7.402;2022-08-05T13:20:10;4.60;;;2.10;;
43146;SDS011;28752;48.266;7.402;2022-08-05T13:22:40;4.57;;;2.15;;
43146;SDS011;28752;48.266;7.402;2022-08-05T13:25:10;4.63;;;2.17;;
43146;SDS011;28752;48.266;7.402;2022-08-05T13:27:42;5.50;;;2.70;;
43146;SDS011;28752;48.266;7.402;2022-08-05T13:30:11;5.38;;;2.33;;
43146;SDS011;28752;48.266;7.402;2022-08-05T13:32:39;4.07;;;2.35;;
43146;SDS011;28752;48.266;7.402;2022-08-05T13:35:06;4.25;;;2.38;;
43146;SDS011;28752;48.266;7.402;2022-08-05T13:37:33;4.57;;;2.38;;
43146;SDS011;28752;48.266;7.402;2022-08-05T13:39:59;4.18;;;2.30;;
43146;SDS011;28752;48.266;7.402;2022-08-05T13:42:24;5.68;;;2.38;;
43146;SDS011;28752;48.266;7.402;2022-08-05T13:44:50;3.58;;;2.20;;
43146;SDS011;28752;48.266;7.402;2022-08-05T13:47:17;4.57;;;2.22;;
43146;SDS011;28752;48.266;7.402;2022-08-05T13:49:42;5.38;;;2.38;;
43146;SDS011;28752;48.266;7.402;2022-08-05T13:54:44;3.47;;;2.20;;
43146;SDS011;28752;48.266;7.402;2022-08-05T13:57:10;4.10;;;2.38;;
43146;SDS011;28752;48.266;7.402;2022-08-05T13:59:37;4.32;;;2.40;;
43146;SDS011;28752;48.266;7.402;2022-08-05T14:02:05;4.40;;;2.58;;
43146;SDS011;28752;48.266;7.402;2022-08-05T14:04:32;4.38;;;2.50;;
43146;SDS011;28752;48.266;7.402;2022-08-05T14:07:28;3.67;;;2.42;;
43146;SDS011;28752;48.266;7.402;2022-08-05T14:09:58;6.00;;;2.65;;
43146;SDS011;28752;48.266;7.402;2022-08-05T14:12:24;4.00;;;2.60;;
43146;SDS011;28752;48.266;7.402;2022-08-05T14:14:49;6.40;;;3.03;;
43146;SDS011;28752;48.266;7.402;2022-08-05T14:17:15;4.70;;;2.80;;
43146;SDS011;28752;48.266;7.402;2022-08-05T14:19:41;4.20;;;2.50;;
43146;SDS011;28752;48.266;7.402;2022-08-05T14:22:07;3.70;;;2.60;;
43146;SDS011;28752;48.266;7.402;2022-08-05T14:24:32;4.47;;;2.53;;
43146;SDS011;28752;48.266;7.402;2022-08-05T14:26:58;4.25;;;2.70;;
43146;SDS011;28752;48.266;7.402;2022-08-05T14:29:23;3.97;;;2.63;;
43146;SDS011;28752;48.266;7.402;2022-08-05T14:31:49;4.93;;;2.65;;
43146;SDS011;28752;48.266;7.402;2022-08-05T14:34:14;4.90;;;2.78;;
43146;SDS011;28752;48.266;7.402;2022-08-05T14:36:40;4.95;;;2.88;;
43146;SDS011;28752;48.266;7.402;2022-08-05T14:39:05;4.70;;;2.53;;
43146;SDS011;28752;48.266;7.402;2022-08-05T14:41:31;6.38;;;2.67;;
43146;SDS011;28752;48.266;7.402;2022-08-05T14:43:57;5.90;;;3.03;;
43146;SDS011;28752;48.266;7.402;2022-08-05T14:46:23;5.93;;;2.92;;
43146;SDS011;28752;48.266;7.402;2022-08-05T14:48:49;4.35;;;2.65;;
43146;SDS011;28752;48.266;7.402;2022-08-05T14:51:14;4.28;;;3.05;;
43146;SDS011;28752;48.266;7.402;2022-08-05T14:53:40;4.65;;;2.83;;
43146;SDS011;28752;48.266;7.402;2022-08-05T14:56:05;4.60;;;2.92;;
43146;SDS011;28752;48.266;7.402;2022-08-05T14:58:31;4.85;;;3.00;;
43146;SDS011;28752;48.266;7.402;2022-08-05T15:00:56;5.47;;;2.75;;
43146;SDS011;28752;48.266;7.402;2022-08-05T15:03:21;4.75;;;2.88;;
43146;SDS011;28752;48.266;7.402;2022-08-05T15:05:47;5.57;;;2.97;;
43146;SDS011;28752;48.266;7.402;2022-08-05T15:08:13;4.88;;;2.92;;
43146;SDS011;28752;48.266;7.402;2022-08-05T15:10:38;5.35;;;3.03;;
43146;SDS011;28752;48.266;7.402;2022-08-05T15:13:07;4.68;;;2.85;;
43146;SDS011;28752;48.266;7.402;2022-08-05T15:15:32;6.22;;;3.05;;
43146;SDS011;28752;48.266;7.402;2022-08-05T15:17:58;5.15;;;2.80;;
43146;SDS011;28752;48.266;7.402;2022-08-05T15:20:23;5.18;;;2.85;;
43146;SDS011;28752;48.266;7.402;2022-08-05T15:22:49;3.78;;;2.70;;
43146;SDS011;28752;48.266;7.402;2022-08-05T15:25:15;4.90;;;2.65;;
43146;SDS011;28752;48.266;7.402;2022-08-05T15:27:40;4.10;;;2.78;;
43146;SDS011;28752;48.266;7.402;2022-08-05T15:30:06;4.30;;;2.58;;
43146;SDS011;28752;48.266;7.402;2022-08-05T15:32:34;4.53;;;3.00;;
43146;SDS011;28752;48.266;7.402;2022-08-05T15:35:00;5.15;;;2.53;;
43146;SDS011;28752;48.266;7.402;2022-08-05T15:37:25;3.65;;;2.40;;
43146;SDS011;28752;48.266;7.402;2022-08-05T15:39:51;6.97;;;2.88;;
43146;SDS011;28752;48.266;7.402;2022-08-05T15:42:17;4.90;;;3.00;;
43146;SDS011;28752;48.266;7.402;2022-08-05T15:44:43;4.75;;;2.63;;
43146;SDS011;28752;48.266;7.402;2022-08-05T15:47:08;4.38;;;2.83;;
43146;SDS011;28752;48.266;7.402;2022-08-05T15:49:34;3.83;;;2.40;;
43146;SDS011;28752;48.266;7.402;2022-08-05T15:52:00;3.83;;;2.65;;
43146;SDS011;28752;48.266;7.402;2022-08-05T15:54:26;3.92;;;2.80;;
43146;SDS011;28752;48.266;7.402;2022-08-05T15:56:52;5.38;;;2.75;;
43146;SDS011;28752;48.266;7.402;2022-08-05T15:59:17;4.60;;;2.90;;
43146;SDS011;28752;48.266;7.402;2022-08-05T16:01:43;5.60;;;2.90;;
43146;SDS011;28752;48.266;7.402;2022-08-05T16:04:08;4.32;;;2.80;;
43146;SDS011;28752;48.266;7.402;2022-08-05T16:06:34;5.07;;;2.75;;
43146;SDS011;28752;48.266;7.402;2022-08-05T16:09:00;4.05;;;2.63;;
43146;SDS011;28752;48.266;7.402;2022-08-05T16:11:26;4.47;;;2.83;;
43146;SDS011;28752;48.266;7.402;2022-08-05T16:13:52;4.72;;;2.92;;
43146;SDS011;28752;48.266;7.402;2022-08-05T16:16:17;4.07;;;2.67;;
43146;SDS011;28752;48.266;7.402;2022-08-05T16:18:44;3.70;;;2.30;;
43146;SDS011;28752;48.266;7.402;2022-08-05T16:21:10;4.45;;;2.80;;
43146;SDS011;28752;48.266;7.402;2022-08-05T16:23:35;6.10;;;2.70;;
43146;SDS011;28752;48.266;7.402;2022-08-05T16:26:07;3.58;;;2.30;;
43146;SDS011;28752;48.266;7.402;2022-08-05T16:28:35;5.38;;;2.88;;
43146;SDS011;28752;48.266;7.402;2022-08-05T16:31:04;6.18;;;2.88;;
43146;SDS011;28752;48.266;7.402;2022-08-05T16:33:30;4.85;;;2.85;;
43146;SDS011;28752;48.266;7.402;2022-08-05T16:35:57;4.18;;;2.40;;
43146;SDS011;28752;48.266;7.402;2022-08-05T16:38:25;4.80;;;2.65;;
43146;SDS011;28752;48.266;7.402;2022-08-05T16:40:52;4.82;;;2.47;;
43146;SDS011;28752;48.266;7.402;2022-08-05T16:43:19;4.18;;;2.40;;
43146;SDS011;28752;48.266;7.402;2022-08-05T16:45:46;4.10;;;2.28;;